Time;durP1;ratioP1;P1;durP2;ratioP2;P2;SDS_P1;SDS_P2;PMS_P1;PMS_P2;Temp;Humidity;BMP_temperature;BMP_pressure;BME280_temperature;BME280_humidity;BME280_pressure;Samples;Min_cycle;Max_cycle;Signal;HPM_P1;HPM_P2
2023/05/22 00:00:01;;;;;;;52.05;30.10;;;;;;;;;;5011291;28;20045;-67
2023/05/22 00:02:27;;;;;;;50.22;30.50;;;;;;;;;;5020715;28;20085;-66
2023/05/22 00:04:57;;;;;;;52.63;30.95;;;;;;;;;;5012597;28;20046;-66
2023/05/22 00:07:26;;;;;;;59.33;33.83;;;;;;;;;;5011744;28;20034;-66
2023/05/22 00:09:52;;;;;;;59.20;34.78;;;;;;;;;;5013628;28;20040;-66
2023/05/22 00:12:19;;;;;;;64.60;39.08;;;;;;;;;;5011023;28;20045;-67
2023/05/22 00:14:46;;;;;;;56.95;38.60;;;;;;;;;;5014124;28;20041;-65
2023/05/22 00:17:15;;;;;;;63.05;39.13;;;;;;;;;;5013029;28;20064;-65
2023/05/22 00:19:41;;;;;;;66.28;39.90;;;;;;;;;;5011500;28;20041;-64
2023/05/22 00:22:09;;;;;;;67.60;40.78;;;;;;;;;;5013054;28;20034;-65
2023/05/22 00:24:37;;;;;;;62.55;40.10;;;;;;;;;;5008704;28;20822;-65
2023/05/22 00:27:04;;;;;;;61.55;39.08;;;;;;;;;;5012316;28;20038;-66
2023/05/22 00:29:30;;;;;;;62.88;38.78;;;;;;;;;;5011203;28;20872;-66
2023/05/22 00:31:57;;;;;;;61.20;35.83;;;;;;;;;;5023945;28;20043;-66
2023/05/22 00:34:24;;;;;;;64.25;34.88;;;;;;;;;;5011635;28;20038;-66
2023/05/22 00:36:50;;;;;;;53.28;31.77;;;;;;;;;;5010083;28;20076;-66
2023/05/22 00:39:17;;;;;;;52.88;33.97;;;;;;;;;;5012021;28;20038;-66
2023/05/22 00:41:44;;;;;;;58.55;35.45;;;;;;;;;;5010006;28;20073;-65
2023/05/22 00:44:11;;;;;;;59.00;36.88;;;;;;;;;;5007904;28;20502;-66
2023/05/22 00:46:38;;;;;;;63.15;38.60;;;;;;;;;;5009350;28;25057;-66
2023/05/22 00:49:05;;;;;;;62.15;37.10;;;;;;;;;;5013284;28;20077;-65
2023/05/22 00:51:32;;;;;;;62.88;37.30;;;;;;;;;;5011808;28;20041;-65
2023/05/22 00:53:58;;;;;;;66.97;39.75;;;;;;;;;;5011776;28;20042;-65
2023/05/22 00:56:25;;;;;;;70.35;38.63;;;;;;;;;;5022617;28;20441;-64
2023/05/22 00:58:52;;;;;;;66.32;39.03;;;;;;;;;;5023636;28;20119;-66
2023/05/22 01:01:19;;;;;;;63.40;38.03;;;;;;;;;;5011624;28;20068;-67
2023/05/22 01:03:46;;;;;;;60.92;38.83;;;;;;;;;;5011870;28;20030;-65
2023/05/22 01:06:20;;;;;;;65.38;40.22;;;;;;;;;;5011450;28;20084;-66
2023/05/22 01:08:47;;;;;;;68.63;42.53;;;;;;;;;;5023411;28;20504;-66
2023/05/22 01:11:16;;;;;;;67.72;41.65;;;;;;;;;;5013252;28;20048;-65
2023/05/22 01:13:51;;;;;;;63.03;40.05;;;;;;;;;;5007012;28;20050;-67
2023/05/22 01:16:18;;;;;;;72.80;44.42;;;;;;;;;;5010671;28;20050;-65
2023/05/22 01:18:49;;;;;;;80.18;48.47;;;;;;;;;;5009630;28;20068;-65
2023/05/22 01:21:25;;;;;;;81.57;47.45;;;;;;;;;;5010146;28;20034;-65
2023/05/22 01:24:14;;;;;;;82.75;50.97;;;;;;;;;;5008363;28;20483;-67
2023/05/22 01:26:59;;;;;;;85.22;50.88;;;;;;;;;;5019597;28;20057;-64
2023/05/22 01:29:32;;;;;;;84.28;51.15;;;;;;;;;;5009618;28;20038;-64
2023/05/22 01:32:01;;;;;;;84.60;51.38;;;;;;;;;;5011356;28;20038;-66
2023/05/22 01:34:28;;;;;;;84.20;50.55;;;;;;;;;;5008845;28;20038;-65
2023/05/22 01:36:55;;;;;;;84.82;52.22;;;;;;;;;;5008986;28;20050;-66
2023/05/22 01:39:22;;;;;;;83.95;50.38;;;;;;;;;;5010193;28;20052;-66
2023/05/22 01:41:49;;;;;;;86.35;48.58;;;;;;;;;;5012747;28;20060;-65
2023/05/22 01:44:16;;;;;;;81.90;51.47;;;;;;;;;;5016987;28;20068;-67
2023/05/22 01:46:42;;;;;;;84.97;50.10;;;;;;;;;;5012613;28;20066;-65
2023/05/22 01:49:09;;;;;;;83.38;49.53;;;;;;;;;;5011429;28;20069;-66
2023/05/22 01:51:39;;;;;;;83.07;48.80;;;;;;;;;;5011390;28;20137;-67
2023/05/22 01:54:18;;;;;;;77.53;47.17;;;;;;;;;;5011345;28;21791;-65
2023/05/22 01:56:56;;;;;;;82.22;47.45;;;;;;;;;;5008041;28;20064;-65
2023/05/22 01:59:24;;;;;;;80.20;47.10;;;;;;;;;;5005888;28;20045;-64
2023/05/22 02:01:51;;;;;;;79.93;47.38;;;;;;;;;;5011441;28;20044;-63
2023/05/22 02:04:20;;;;;;;83.68;49.17;;;;;;;;;;5014130;28;20278;-65
2023/05/22 02:06:48;;;;;;;83.18;48.95;;;;;;;;;;5011344;28;20041;-65
2023/05/22 02:09:16;;;;;;;90.47;51.58;;;;;;;;;;5004313;28;20064;-67
2023/05/22 02:11:45;;;;;;;84.20;51.22;;;;;;;;;;5012685;28;20042;-67
2023/05/22 02:14:14;;;;;;;92.63;53.08;;;;;;;;;;5016872;28;20104;-65
2023/05/22 02:16:46;;;;;;;99.18;52.63;;;;;;;;;;5015729;28;20096;-67
2023/05/22 02:19:14;;;;;;;95.80;51.92;;;;;;;;;;5005953;28;20042;-65
2023/05/22 02:21:41;;;;;;;91.93;53.50;;;;;;;;;;5021712;28;20515;-65
2023/05/22 02:24:08;;;;;;;88.10;53.45;;;;;;;;;;5010907;28;20045;-65
2023/05/22 02:26:38;;;;;;;89.05;52.67;;;;;;;;;;5009135;28;20053;-67
2023/05/22 02:29:06;;;;;;;94.70;54.97;;;;;;;;;;5009671;28;20052;-66
2023/05/22 02:31:33;;;;;;;87.95;51.83;;;;;;;;;;5004178;28;20050;-64
2023/05/22 02:33:59;;;;;;;99.90;53.17;;;;;;;;;;5018956;28;20046;-65
2023/05/22 02:36:29;;;;;;;79.93;46.22;;;;;;;;;;5001952;28;20590;-65
2023/05/22 02:39:03;;;;;;;69.65;42.13;;;;;;;;;;5011632;28;20038;-71
2023/05/22 02:41:30;;;;;;;55.92;32.47;;;;;;;;;;5000748;28;20136;-63
2023/05/22 02:43:57;;;;;;;49.58;28.73;;;;;;;;;;5011570;28;20050;-67
2023/05/22 02:46:23;;;;;;;38.08;25.17;;;;;;;;;;5011649;28;20038;-65
2023/05/22 02:48:50;;;;;;;43.88;24.27;;;;;;;;;;5022097;28;22266;-64
2023/05/22 02:51:17;;;;;;;44.10;24.40;;;;;;;;;;5011514;28;20116;-63
2023/05/22 02:53:43;;;;;;;38.67;22.45;;;;;;;;;;5009139;28;20057;-64
2023/05/22 02:56:10;;;;;;;36.10;20.67;;;;;;;;;;5010074;28;20053;-65
2023/05/22 02:58:37;;;;;;;35.30;19.35;;;;;;;;;;5010487;28;20043;-65
2023/05/22 03:01:05;;;;;;;28.25;16.55;;;;;;;;;;5010853;28;20096;-64
2023/05/22 03:03:32;;;;;;;26.50;15.55;;;;;;;;;;5010725;28;20065;-64
2023/05/22 03:06:00;;;;;;;27.35;15.85;;;;;;;;;;5011664;28;20033;-63
2023/05/22 03:08:30;;;;;;;28.50;14.20;;;;;;;;;;5010498;28;20831;-66
2023/05/22 03:10:58;;;;;;;26.88;13.55;;;;;;;;;;5014266;28;20042;-63
2023/05/22 03:13:25;;;;;;;26.52;14.10;;;;;;;;;;5009591;28;20570;-64
2023/05/22 03:15:51;;;;;;;21.40;12.20;;;;;;;;;;5009690;28;20169;-65
2023/05/22 03:18:18;;;;;;;24.17;12.55;;;;;;;;;;5009854;28;20129;-63
2023/05/22 03:20:45;;;;;;;25.95;11.45;;;;;;;;;;5030386;28;20091;-61
2023/05/22 03:23:15;;;;;;;23.50;12.38;;;;;;;;;;5030469;28;20032;-66
2023/05/22 03:25:41;;;;;;;24.60;10.38;;;;;;;;;;5031256;28;20030;-63
2023/05/22 03:28:08;;;;;;;20.08;10.15;;;;;;;;;;5029136;28;20045;-64
2023/05/22 03:30:35;;;;;;;16.52;9.30;;;;;;;;;;5032108;28;20038;-65
2023/05/22 03:33:01;;;;;;;18.15;9.05;;;;;;;;;;5030812;28;21885;-64
2023/05/22 03:35:28;;;;;;;21.50;9.60;;;;;;;;;;5011972;28;20045;-64
2023/05/22 03:37:55;;;;;;;23.35;8.95;;;;;;;;;;5032652;28;20052;-65
2023/05/22 03:40:21;;;;;;;16.67;8.60;;;;;;;;;;5029219;28;20045;-65
2023/05/22 03:42:48;;;;;;;16.58;7.93;;;;;;;;;;5045960;28;20021;-63
2023/05/22 03:45:15;;;;;;;15.65;8.15;;;;;;;;;;5032403;28;20079;-64
2023/05/22 03:47:42;;;;;;;16.95;8.82;;;;;;;;;;5040089;28;21061;-65
2023/05/22 03:50:09;;;;;;;14.95;8.55;;;;;;;;;;5041074;28;20052;-63
2023/05/22 03:52:35;;;;;;;18.52;8.40;;;;;;;;;;5038269;28;20030;-66
2023/05/22 03:55:02;;;;;;;19.30;8.70;;;;;;;;;;5036428;28;20099;-64
2023/05/22 03:57:29;;;;;;;16.63;8.43;;;;;;;;;;5034798;28;20057;-66
2023/05/22 03:59:56;;;;;;;15.70;8.27;;;;;;;;;;5032129;28;20034;-63
2023/05/22 04:02:25;;;;;;;16.23;8.70;;;;;;;;;;5030945;28;20037;-61
2023/05/22 04:04:51;;;;;;;21.33;10.50;;;;;;;;;;5029307;28;20525;-62
2023/05/22 04:07:19;;;;;;;19.02;9.65;;;;;;;;;;5029253;28;20952;-66
2023/05/22 04:09:45;;;;;;;16.85;9.18;;;;;;;;;;5017202;28;20041;-67
2023/05/22 04:12:12;;;;;;;15.38;8.55;;;;;;;;;;5027504;28;20041;-63
2023/05/22 04:14:38;;;;;;;19.65;8.38;;;;;;;;;;5030001;28;20481;-63
2023/05/22 04:17:05;;;;;;;19.33;9.10;;;;;;;;;;5028461;28;20043;-65
2023/05/22 04:19:32;;;;;;;23.92;8.63;;;;;;;;;;5021013;28;20464;-64
2023/05/22 04:21:59;;;;;;;14.70;7.78;;;;;;;;;;5028839;28;20080;-64
2023/05/22 04:24:26;;;;;;;19.08;8.88;;;;;;;;;;5030727;28;20092;-64
2023/05/22 04:26:52;;;;;;;21.45;10.35;;;;;;;;;;5028596;28;20065;-64
2023/05/22 04:29:21;;;;;;;34.58;11.90;;;;;;;;;;5030397;28;20505;-66
2023/05/22 04:31:47;;;;;;;48.58;12.20;;;;;;;;;;5027997;28;20136;-66
2023/05/22 04:34:15;;;;;;;40.15;11.02;;;;;;;;;;5029393;28;20097;-66
2023/05/22 04:36:43;;;;;;;42.30;10.75;;;;;;;;;;5027422;28;20052;-68
2023/05/22 04:39:10;;;;;;;43.55;11.68;;;;;;;;;;5028191;28;20038;-68
2023/05/22 04:41:37;;;;;;;32.03;10.48;;;;;;;;;;5027728;28;20051;-65
2023/05/22 04:44:04;;;;;;;39.10;10.30;;;;;;;;;;5026805;28;20044;-66
2023/05/22 04:46:33;;;;;;;22.70;8.88;;;;;;;;;;5027007;28;20542;-67
2023/05/22 04:49:00;;;;;;;24.63;9.40;;;;;;;;;;5030770;28;20055;-67
2023/05/22 04:51:28;;;;;;;23.23;9.52;;;;;;;;;;5011550;28;20101;-66
2023/05/22 04:53:57;;;;;;;20.67;9.68;;;;;;;;;;5029100;28;20524;-65
2023/05/22 04:56:23;;;;;;;21.00;8.30;;;;;;;;;;5030592;28;20044;-66
2023/05/22 04:58:52;;;;;;;17.75;8.48;;;;;;;;;;5033547;28;20047;-66
2023/05/22 05:01:19;;;;;;;25.52;8.80;;;;;;;;;;5032973;28;20056;-66
2023/05/22 05:03:46;;;;;;;17.25;7.85;;;;;;;;;;5030261;28;20056;-66
2023/05/22 05:06:13;;;;;;;25.15;8.75;;;;;;;;;;5033873;28;20045;-66
2023/05/22 05:08:41;;;;;;;20.52;8.43;;;;;;;;;;5024613;28;20049;-66
2023/05/22 05:11:08;;;;;;;18.30;8.77;;;;;;;;;;5032755;28;20073;-65
2023/05/22 05:13:35;;;;;;;13.77;7.20;;;;;;;;;;5030995;28;20057;-65
2023/05/22 05:16:01;;;;;;;17.52;7.95;;;;;;;;;;5027135;28;20049;-66
2023/05/22 05:18:28;;;;;;;20.10;8.57;;;;;;;;;;5034038;28;20038;-66
2023/05/22 05:20:55;;;;;;;19.25;8.68;;;;;;;;;;5031889;28;20049;-64
2023/05/22 05:23:21;;;;;;;20.17;7.93;;;;;;;;;;5030989;28;20024;-66
2023/05/22 05:25:48;;;;;;;19.75;7.80;;;;;;;;;;5030978;28;20033;-68
2023/05/22 05:28:14;;;;;;;21.25;8.38;;;;;;;;;;5029984;28;20041;-67
2023/05/22 05:30:41;;;;;;;18.75;8.32;;;;;;;;;;5027851;28;20036;-67
2023/05/22 05:33:08;;;;;;;27.98;9.00;;;;;;;;;;5011197;28;20820;-68
2023/05/22 05:35:34;;;;;;;21.85;9.13;;;;;;;;;;5022629;28;20462;-65
2023/05/22 05:38:01;;;;;;;22.67;9.90;;;;;;;;;;5031413;28;20040;-65
2023/05/22 05:40:28;;;;;;;24.15;11.38;;;;;;;;;;5033375;28;20069;-66
2023/05/22 05:42:55;;;;;;;32.45;12.20;;;;;;;;;;5032834;28;20037;-67
2023/05/22 05:45:21;;;;;;;37.00;11.45;;;;;;;;;;5032369;28;20084;-67
2023/05/22 05:47:48;;;;;;;35.35;15.48;;;;;;;;;;5032178;28;20045;-66
2023/05/22 05:50:14;;;;;;;34.25;16.33;;;;;;;;;;5032800;28;20096;-67
2023/05/22 05:52:41;;;;;;;41.28;18.80;;;;;;;;;;5029636;28;20527;-65
2023/05/22 05:55:08;;;;;;;56.70;24.50;;;;;;;;;;5032067;28;20041;-66
2023/05/22 05:57:35;;;;;;;61.22;28.00;;;;;;;;;;5030823;28;20052;-65
2023/05/22 06:00:03;;;;;;;58.35;30.30;;;;;;;;;;5031227;28;20029;-65
2023/05/22 06:02:31;;;;;;;52.03;27.45;;;;;;;;;;5031966;28;20079;-66
2023/05/22 06:04:57;;;;;;;54.00;28.75;;;;;;;;;;5029975;28;20513;-65
2023/05/22 06:07:24;;;;;;;61.47;29.25;;;;;;;;;;5031605;28;20037;-65
2023/05/22 06:09:51;;;;;;;60.22;29.20;;;;;;;;;;5031614;28;20060;-66
2023/05/22 06:12:17;;;;;;;55.58;28.55;;;;;;;;;;5032610;28;20075;-65
2023/05/22 06:14:44;;;;;;;56.13;27.48;;;;;;;;;;5030223;28;20045;-66
2023/05/22 06:17:11;;;;;;;61.85;30.92;;;;;;;;;;5032210;28;20060;-67
2023/05/22 06:19:37;;;;;;;57.42;29.35;;;;;;;;;;5032009;28;20141;-66
2023/05/22 06:22:04;;;;;;;53.90;28.42;;;;;;;;;;5029791;28;20033;-67
2023/05/22 06:24:31;;;;;;;63.58;31.50;;;;;;;;;;5031057;28;20059;-65
2023/05/22 06:26:58;;;;;;;55.17;29.50;;;;;;;;;;5031469;28;20060;-67
2023/05/22 06:29:25;;;;;;;54.22;30.90;;;;;;;;;;5030792;28;20716;-66
2023/05/22 06:31:52;;;;;;;60.30;29.80;;;;;;;;;;5030752;28;20048;-66
2023/05/22 06:34:21;;;;;;;56.63;30.58;;;;;;;;;;5029397;28;20041;-68
2023/05/22 06:36:49;;;;;;;55.90;28.45;;;;;;;;;;5031155;28;20053;-66
2023/05/22 06:39:17;;;;;;;55.92;28.40;;;;;;;;;;5031928;28;20041;-65
2023/05/22 06:41:44;;;;;;;56.75;28.67;;;;;;;;;;5026471;28;20045;-65
2023/05/22 06:44:11;;;;;;;48.67;26.23;;;;;;;;;;5030783;28;20037;-65
2023/05/22 06:46:38;;;;;;;51.38;28.58;;;;;;;;;;5031339;28;20913;-66
2023/05/22 06:49:05;;;;;;;53.17;28.17;;;;;;;;;;5031302;28;20033;-67
2023/05/22 06:51:32;;;;;;;51.53;25.25;;;;;;;;;;5030705;28;20075;-66
2023/05/22 06:53:59;;;;;;;44.40;24.42;;;;;;;;;;5030129;28;20528;-66
2023/05/22 06:56:26;;;;;;;41.30;22.60;;;;;;;;;;5028361;28;20060;-66
2023/05/22 06:58:52;;;;;;;39.83;21.13;;;;;;;;;;5031028;28;20393;-67
2023/05/22 07:01:19;;;;;;;42.28;21.30;;;;;;;;;;5030138;28;20130;-68
2023/05/22 07:03:46;;;;;;;31.75;17.95;;;;;;;;;;5029603;28;20401;-67
2023/05/22 07:06:12;;;;;;;31.35;16.02;;;;;;;;;;5030138;28;20126;-66
2023/05/22 07:08:39;;;;;;;25.13;13.93;;;;;;;;;;5029439;28;20049;-65
2023/05/22 07:11:07;;;;;;;24.60;13.55;;;;;;;;;;5032554;28;20068;-67
2023/05/22 07:13:35;;;;;;;20.85;12.60;;;;;;;;;;5026930;28;20045;-66
2023/05/22 07:16:02;;;;;;;21.60;12.02;;;;;;;;;;5028170;28;20041;-65
2023/05/22 07:18:28;;;;;;;22.67;11.95;;;;;;;;;;5000813;28;20042;-71
2023/05/22 07:20:55;;;;;;;21.20;11.88;;;;;;;;;;5005652;28;20044;-66
2023/05/22 07:23:21;;;;;;;22.17;11.27;;;;;;;;;;5030108;28;20033;-66
2023/05/22 07:25:48;;;;;;;21.45;11.65;;;;;;;;;;5032657;28;20505;-67
2023/05/22 07:28:15;;;;;;;19.77;10.88;;;;;;;;;;5015895;28;20128;-66
2023/05/22 07:30:41;;;;;;;21.10;11.07;;;;;;;;;;5029032;28;21786;-66
2023/05/22 07:33:08;;;;;;;19.25;10.70;;;;;;;;;;5015977;28;20289;-67
2023/05/22 07:35:35;;;;;;;19.63;10.45;;;;;;;;;;5029632;28;20309;-66
2023/05/22 07:38:01;;;;;;;22.55;11.77;;;;;;;;;;5030022;28;20040;-65
2023/05/22 07:40:28;;;;;;;22.23;10.73;;;;;;;;;;5028013;28;20538;-65
2023/05/22 07:42:55;;;;;;;23.63;11.68;;;;;;;;;;5031246;28;20056;-65
2023/05/22 07:45:21;;;;;;;21.02;10.98;;;;;;;;;;5032072;28;20029;-64
2023/05/22 07:47:48;;;;;;;22.58;11.70;;;;;;;;;;5015518;28;20166;-65
2023/05/22 07:50:15;;;;;;;23.55;11.75;;;;;;;;;;5033151;28;20552;-63
2023/05/22 07:52:41;;;;;;;27.15;12.00;;;;;;;;;;5034690;28;20040;-66
2023/05/22 07:55:08;;;;;;;25.60;11.52;;;;;;;;;;5037130;28;20047;-65
2023/05/22 07:57:35;;;;;;;23.73;11.80;;;;;;;;;;5036121;28;20048;-62
2023/05/22 08:00:08;;;;;;;24.27;11.85;;;;;;;;;;5034358;28;20520;-67
2023/05/22 08:02:35;;;;;;;24.38;12.35;;;;;;;;;;5036185;28;20182;-65
2023/05/22 08:05:03;;;;;;;23.30;12.05;;;;;;;;;;5033570;28;20147;-65
2023/05/22 08:07:31;;;;;;;29.77;14.00;;;;;;;;;;5029634;28;20432;-65
2023/05/22 08:09:58;;;;;;;32.50;15.13;;;;;;;;;;5030238;28;20808;-65
2023/05/22 08:12:25;;;;;;;27.05;14.57;;;;;;;;;;5028591;28;20139;-67
2023/05/22 08:14:51;;;;;;;31.25;16.45;;;;;;;;;;5027629;28;20061;-65
2023/05/22 08:17:18;;;;;;;36.47;15.82;;;;;;;;;;5028776;28;20055;-66
2023/05/22 08:19:45;;;;;;;29.85;15.95;;;;;;;;;;5007727;28;20037;-65
2023/05/22 08:22:11;;;;;;;35.65;15.65;;;;;;;;;;5010505;28;20042;-66
2023/05/22 08:24:38;;;;;;;28.08;14.45;;;;;;;;;;5010208;28;20046;-67
2023/05/22 08:27:05;;;;;;;30.10;16.00;;;;;;;;;;5010604;28;20041;-66
2023/05/22 08:29:31;;;;;;;30.38;16.08;;;;;;;;;;5009576;28;20049;-67
2023/05/22 08:31:58;;;;;;;30.40;14.48;;;;;;;;;;5009225;28;20564;-66
2023/05/22 08:34:25;;;;;;;29.30;14.63;;;;;;;;;;5008920;28;20069;-65
2023/05/22 08:36:51;;;;;;;28.60;13.85;;;;;;;;;;5020529;28;20229;-66
2023/05/22 08:39:18;;;;;;;25.63;13.98;;;;;;;;;;5009631;28;20037;-65
2023/05/22 08:41:46;;;;;;;23.75;12.82;;;;;;;;;;5009617;28;20041;-65
2023/05/22 08:44:13;;;;;;;20.27;11.23;;;;;;;;;;5010635;28;20053;-66
2023/05/22 08:46:44;;;;;;;20.52;10.13;;;;;;;;;;5008851;28;20073;-67
2023/05/22 08:49:11;;;;;;;21.20;10.93;;;;;;;;;;5008995;28;20129;-69
2023/05/22 08:51:39;;;;;;;21.80;10.30;;;;;;;;;;5008176;28;20037;-65
2023/05/22 08:54:06;;;;;;;21.25;10.45;;;;;;;;;;5007541;28;20041;-67
2023/05/22 08:56:33;;;;;;;19.02;9.88;;;;;;;;;;5009254;28;20128;-66
2023/05/22 08:59:00;;;;;;;19.30;10.82;;;;;;;;;;5010355;28;20155;-68
2023/05/22 09:01:28;;;;;;;18.58;8.98;;;;;;;;;;5009344;28;20080;-67
2023/05/22 09:03:59;;;;;;;21.20;8.75;;;;;;;;;;5010162;28;20045;-67
2023/05/22 09:06:27;;;;;;;18.05;9.02;;;;;;;;;;5009848;28;20045;-66
2023/05/22 09:08:57;;;;;;;17.27;8.60;;;;;;;;;;5010686;28;20068;-67
2023/05/22 09:11:25;;;;;;;18.02;9.50;;;;;;;;;;5021157;28;20041;-68
2023/05/22 09:13:51;;;;;;;21.85;9.38;;;;;;;;;;5012801;28;20064;-66
2023/05/22 09:16:19;;;;;;;22.23;11.55;;;;;;;;;;5013871;28;20513;-67
2023/05/22 09:18:46;;;;;;;21.63;10.98;;;;;;;;;;5014620;28;20068;-66
2023/05/22 09:21:18;;;;;;;19.80;11.10;;;;;;;;;;5012119;28;20043;-66
2023/05/22 09:23:48;;;;;;;21.98;11.82;;;;;;;;;;5014992;28;20030;-67
2023/05/22 09:26:14;;;;;;;19.75;10.93;;;;;;;;;;5013351;28;20040;-66
2023/05/22 09:28:41;;;;;;;20.15;11.00;;;;;;;;;;5013557;28;20053;-68
2023/05/22 09:31:08;;;;;;;22.83;12.00;;;;;;;;;;5023756;28;20116;-66
2023/05/22 09:33:38;;;;;;;30.92;15.38;;;;;;;;;;5012858;28;20025;-68
2023/05/22 09:36:09;;;;;;;65.07;30.90;;;;;;;;;;5012432;28;20049;-67
2023/05/22 09:38:35;;;;;;;80.35;40.83;;;;;;;;;;5014513;28;20025;-68
2023/05/22 09:41:02;;;;;;;100.05;51.53;;;;;;;;;;5012746;28;20142;-66
2023/05/22 09:43:28;;;;;;;121.57;66.00;;;;;;;;;;5012050;28;20056;-66
2023/05/22 09:46:01;;;;;;;156.38;84.38;;;;;;;;;;5013781;28;20515;-68
2023/05/22 09:48:27;;;;;;;164.97;93.87;;;;;;;;;;5012482;28;20060;-66
2023/05/22 09:50:57;;;;;;;171.05;89.28;;;;;;;;;;5013416;28;20033;-67
2023/05/22 09:53:29;;;;;;;171.35;94.50;;;;;;;;;;5022338;28;20513;-66
2023/05/22 09:55:59;;;;;;;180.20;97.57;;;;;;;;;;5013268;28;20088;-68
2023/05/22 09:58:30;;;;;;;185.82;101.60;;;;;;;;;;5012743;28;20034;-67
2023/05/22 10:00:57;;;;;;;203.98;109.93;;;;;;;;;;5013613;28;20029;-66
2023/05/22 10:03:25;;;;;;;205.57;111.75;;;;;;;;;;5012789;28;20030;-66
2023/05/22 10:05:53;;;;;;;202.50;109.85;;;;;;;;;;5013754;28;20033;-66
2023/05/22 10:08:28;;;;;;;197.73;106.35;;;;;;;;;;5014021;28;20062;-69
2023/05/22 10:10:56;;;;;;;191.35;104.25;;;;;;;;;;5013755;28;20087;-67
2023/05/22 10:13:23;;;;;;;191.43;101.20;;;;;;;;;;5012863;28;20042;-66
2023/05/22 10:15:51;;;;;;;195.15;105.82;;;;;;;;;;5013301;28;20522;-67
2023/05/22 10:18:17;;;;;;;185.93;102.30;;;;;;;;;;5013161;28;20037;-67
2023/05/22 10:20:47;;;;;;;209.02;110.85;;;;;;;;;;5013211;28;20386;-66
2023/05/22 10:23:15;;;;;;;206.57;111.70;;;;;;;;;;5011162;28;20100;-68
2023/05/22 10:25:42;;;;;;;227.95;122.53;;;;;;;;;;5012606;28;20025;-67
2023/05/22 10:28:09;;;;;;;236.05;127.57;;;;;;;;;;5013099;28;20030;-66
2023/05/22 10:31:11;;;;;;;248.40;134.60;;;;;;;;;;5012746;28;20034;-67
2023/05/22 10:33:43;;;;;;;258.55;141.60;;;;;;;;;;4945411;28;20083;-67
2023/05/22 10:36:32;;;;;;;266.30;143.25;;;;;;;;;;4999964;28;20100;-67
2023/05/22 10:39:08;;;;;;;279.00;150.18;;;;;;;;;;5003215;28;20414;-67
2023/05/22 10:41:34;;;;;;;267.75;148.85;;;;;;;;;;5012324;28;20041;-67
2023/05/22 10:44:02;;;;;;;281.83;149.88;;;;;;;;;;5011554;28;20033;-68
2023/05/22 10:46:34;;;;;;;274.25;150.05;;;;;;;;;;5012572;28;20041;-68
2023/05/22 10:49:01;;;;;;;270.60;149.73;;;;;;;;;;5012667;28;20397;-68
2023/05/22 10:51:27;;;;;;;286.90;161.70;;;;;;;;;;5012489;28;20040;-69
2023/05/22 10:54:04;;;;;;;291.98;153.80;;;;;;;;;;5011796;28;20463;-67
2023/05/22 10:56:34;;;;;;;285.13;154.32;;;;;;;;;;5010907;28;20114;-68
2023/05/22 10:59:33;;;;;;;287.80;156.07;;;;;;;;;;5021930;28;20030;-70
2023/05/22 11:02:00;;;;;;;287.58;154.63;;;;;;;;;;5023814;28;20077;-68
2023/05/22 11:04:47;;;;;;;289.05;151.25;;;;;;;;;;5016757;28;20041;-67
2023/05/22 11:07:14;;;;;;;280.50;151.07;;;;;;;;;;4967333;28;20057;-67
2023/05/22 11:09:46;;;;;;;271.45;148.23;;;;;;;;;;4983400;28;20048;-66
2023/05/22 11:12:15;;;;;;;281.13;152.03;;;;;;;;;;4983130;28;20046;-66
2023/05/22 11:14:49;;;;;;;281.65;154.95;;;;;;;;;;4982766;28;20514;-66
2023/05/22 11:17:29;;;;;;;286.20;156.73;;;;;;;;;;4983333;28;20145;-66
2023/05/22 11:19:59;;;;;;;291.98;154.35;;;;;;;;;;4982628;28;20054;-67
2023/05/22 11:22:32;;;;;;;289.85;149.68;;;;;;;;;;4982670;28;20042;-68
2023/05/22 11:24:59;;;;;;;279.10;150.75;;;;;;;;;;4984216;28;20130;-66
2023/05/22 11:27:26;;;;;;;287.38;155.10;;;;;;;;;;4984025;28;20038;-65
2023/05/22 11:29:54;;;;;;;276.27;152.40;;;;;;;;;;4982005;28;20586;-68
2023/05/22 11:32:21;;;;;;;276.73;148.77;;;;;;;;;;4983896;28;20080;-68
2023/05/22 11:34:49;;;;;;;281.20;151.70;;;;;;;;;;4982778;28;20762;-66
2023/05/22 11:37:18;;;;;;;274.13;151.40;;;;;;;;;;4987060;28;20062;-65
2023/05/22 11:39:51;;;;;;;286.23;149.30;;;;;;;;;;4972085;28;20549;-65
2023/05/22 11:42:18;;;;;;;267.02;144.10;;;;;;;;;;4982694;28;20117;-67
2023/05/22 11:44:45;;;;;;;263.85;139.88;;;;;;;;;;4990243;28;20041;-65
2023/05/22 11:47:12;;;;;;;255.27;140.80;;;;;;;;;;4990791;28;20025;-70
2023/05/22 11:49:40;;;;;;;253.90;139.52;;;;;;;;;;4992574;28;20121;-66
2023/05/22 11:52:07;;;;;;;245.95;134.95;;;;;;;;;;4991825;28;20031;-67
2023/05/22 11:54:34;;;;;;;249.00;133.95;;;;;;;;;;4988526;28;20345;-67
2023/05/22 11:57:03;;;;;;;237.73;131.38;;;;;;;;;;4990766;28;20483;-66
2023/05/22 11:59:30;;;;;;;251.32;134.50;;;;;;;;;;4991546;28;20064;-67
2023/05/22 12:01:58;;;;;;;253.20;133.05;;;;;;;;;;4991155;28;20063;-66
2023/05/22 12:04:24;;;;;;;234.52;128.85;;;;;;;;;;4991735;28;20026;-68
2023/05/22 12:06:51;;;;;;;236.50;127.18;;;;;;;;;;5002227;28;20096;-66
2023/05/22 12:09:18;;;;;;;233.32;127.95;;;;;;;;;;4990582;28;20026;-69
2023/05/22 12:11:48;;;;;;;233.45;125.38;;;;;;;;;;5002254;28;20030;-67
2023/05/22 12:14:15;;;;;;;244.80;128.35;;;;;;;;;;5010525;28;20586;-66
2023/05/22 12:16:43;;;;;;;226.98;124.70;;;;;;;;;;5021251;28;20128;-65
2023/05/22 12:19:11;;;;;;;230.05;123.18;;;;;;;;;;5011831;28;20083;-68
2023/05/22 12:21:57;;;;;;;236.80;126.00;;;;;;;;;;4988309;28;20042;-67
2023/05/22 12:24:24;;;;;;;238.45;124.05;;;;;;;;;;4986531;28;20113;-67
2023/05/22 12:26:51;;;;;;;223.52;119.03;;;;;;;;;;4988849;28;20129;-66
2023/05/22 12:29:18;;;;;;;209.38;117.25;;;;;;;;;;4987616;28;20026;-66
2023/05/22 12:32:08;;;;;;;225.35;119.60;;;;;;;;;;4948458;28;20113;-66
2023/05/22 12:34:35;;;;;;;211.07;116.25;;;;;;;;;;4932929;28;20055;-66
2023/05/22 12:37:03;;;;;;;214.50;116.53;;;;;;;;;;4950311;28;20126;-67
2023/05/22 12:39:30;;;;;;;215.85;115.30;;;;;;;;;;4949147;28;20519;-66
2023/05/22 12:41:56;;;;;;;211.27;115.78;;;;;;;;;;4949614;28;20069;-68
2023/05/22 12:44:23;;;;;;;224.65;115.43;;;;;;;;;;4931629;28;20051;-65
2023/05/22 12:46:52;;;;;;;221.30;116.82;;;;;;;;;;4926126;28;20047;-66
2023/05/22 12:49:19;;;;;;;204.68;114.18;;;;;;;;;;4949064;28;20078;-66
2023/05/22 12:51:45;;;;;;;212.15;113.43;;;;;;;;;;4928006;28;20494;-65
2023/05/22 12:54:14;;;;;;;205.75;109.82;;;;;;;;;;4947881;28;20126;-66
2023/05/22 12:56:40;;;;;;;197.27;108.43;;;;;;;;;;4949100;28;20551;-65
2023/05/22 12:59:07;;;;;;;194.40;105.00;;;;;;;;;;4963223;28;20513;-66
2023/05/22 13:01:34;;;;;;;201.75;106.22;;;;;;;;;;4989045;28;20038;-65
2023/05/22 13:04:00;;;;;;;201.80;106.70;;;;;;;;;;4965543;28;20049;-66
2023/05/22 13:06:27;;;;;;;200.07;105.40;;;;;;;;;;4986866;28;20073;-66
2023/05/22 13:08:53;;;;;;;182.40;101.00;;;;;;;;;;4990085;28;20515;-67
2023/05/22 13:11:22;;;;;;;194.18;102.57;;;;;;;;;;5010092;28;20542;-67
2023/05/22 13:13:48;;;;;;;190.90;102.97;;;;;;;;;;5009202;28;20068;-65
2023/05/22 13:16:15;;;;;;;194.23;102.05;;;;;;;;;;5021579;28;20093;-67
2023/05/22 13:18:42;;;;;;;189.13;98.68;;;;;;;;;;5010754;28;20026;-68
2023/05/22 13:21:08;;;;;;;172.80;95.07;;;;;;;;;;5010248;28;20033;-68
2023/05/22 13:23:35;;;;;;;184.02;95.38;;;;;;;;;;5020928;28;20444;-67
2023/05/22 13:26:01;;;;;;;181.15;95.57;;;;;;;;;;5020259;28;20036;-67
2023/05/22 13:28:28;;;;;;;169.18;84.45;;;;;;;;;;5009322;28;20103;-66
2023/05/22 13:30:55;;;;;;;170.98;90.25;;;;;;;;;;5009707;28;20088;-64
2023/05/22 13:33:22;;;;;;;184.25;91.68;;;;;;;;;;5009012;28;20741;-66
2023/05/22 13:35:48;;;;;;;170.00;89.28;;;;;;;;;;5008281;28;20402;-65
2023/05/22 13:38:15;;;;;;;169.07;85.95;;;;;;;;;;5010827;28;20041;-66
2023/05/22 13:40:44;;;;;;;160.70;87.18;;;;;;;;;;5009567;28;20900;-65
2023/05/22 13:43:11;;;;;;;171.25;85.88;;;;;;;;;;5009770;28;20021;-66
2023/05/22 13:45:38;;;;;;;165.60;82.78;;;;;;;;;;5009597;28;20108;-66
2023/05/22 13:48:05;;;;;;;156.73;81.50;;;;;;;;;;5010394;28;20553;-66
2023/05/22 13:50:31;;;;;;;157.05;82.63;;;;;;;;;;5009171;28;20033;-66
2023/05/22 13:52:58;;;;;;;160.02;82.40;;;;;;;;;;5010252;28;20032;-66
2023/05/22 13:55:25;;;;;;;159.85;82.32;;;;;;;;;;5007622;28;20057;-67
2023/05/22 13:57:51;;;;;;;163.85;80.25;;;;;;;;;;5010556;28;20037;-67
2023/05/22 14:00:18;;;;;;;156.50;77.32;;;;;;;;;;5013913;28;20068;-67
2023/05/22 14:02:45;;;;;;;157.27;78.57;;;;;;;;;;5013028;28;20062;-67
2023/05/22 14:05:12;;;;;;;151.05;76.45;;;;;;;;;;5010799;28;20038;-68
2023/05/22 14:07:38;;;;;;;147.68;77.28;;;;;;;;;;5014174;28;20030;-66
2023/05/22 14:10:05;;;;;;;145.20;73.25;;;;;;;;;;5011975;28;20398;-66
2023/05/22 14:12:32;;;;;;;149.80;76.10;;;;;;;;;;5012119;28;20049;-67
2023/05/22 14:14:58;;;;;;;142.02;73.32;;;;;;;;;;5012716;28;20817;-67